createdAt,value
2024-03-16T00:01:11.578Z,13.08
2024-03-16T00:03:41.874Z,13.10
2024-03-16T00:06:12.064Z,13.10
2024-03-16T00:08:42.424Z,13.10
2024-03-16T00:11:12.601Z,13.08
2024-03-16T00:13:43.387Z,13.06
2024-03-16T00:16:13.586Z,13.04
2024-03-16T00:18:43.789Z,13.00
2024-03-16T00:21:13.954Z,12.98
2024-03-16T00:23:44.620Z,12.91
2024-03-16T00:26:14.862Z,12.87
2024-03-16T00:28:45.108Z,12.83
2024-03-16T00:31:16.370Z,12.80
2024-03-16T00:33:46.570Z,12.79
2024-03-16T00:36:18.556Z,12.75
2024-03-16T00:38:51.200Z,12.75
2024-03-16T00:41:21.688Z,12.74
2024-03-16T00:43:52.326Z,12.77
2024-03-16T00:46:22.535Z,12.77
2024-03-16T00:48:52.793Z,12.77
2024-03-16T00:51:22.996Z,12.79
2024-03-16T00:53:53.067Z,12.79
2024-03-16T00:56:23.496Z,12.76
2024-03-16T00:58:54.109Z,12.70
2024-03-16T01:01:24.431Z,12.66
2024-03-16T01:03:54.812Z,12.63
2024-03-16T01:06:25.101Z,12.64
2024-03-16T01:08:55.408Z,12.62
2024-03-16T01:11:25.941Z,12.59
2024-03-16T01:13:56.268Z,12.59
2024-03-16T01:16:27.290Z,12.59
2024-03-16T01:18:57.469Z,12.58
2024-03-16T01:21:27.754Z,12.54
2024-03-16T01:23:57.933Z,12.52
2024-03-16T01:26:28.214Z,12.49
2024-03-16T01:29:00.473Z,12.47
2024-03-16T01:31:30.696Z,12.49
2024-03-16T01:34:01.013Z,12.48
2024-03-16T01:36:31.369Z,12.46
2024-03-16T01:39:02.142Z,12.39
2024-03-16T01:41:32.330Z,12.34
2024-03-16T01:44:13.011Z,12.28
2024-03-16T01:46:43.731Z,12.23
2024-03-16T01:49:14.170Z,12.23
2024-03-16T01:51:44.484Z,12.19
2024-03-16T01:54:14.695Z,12.17
2024-03-16T01:56:45.374Z,12.14
2024-03-16T01:59:15.570Z,12.12
2024-03-16T02:01:48.033Z,12.04
2024-03-16T02:04:18.286Z,11.98
2024-03-16T02:06:50.418Z,11.97
2024-03-16T02:09:20.998Z,12.00
2024-03-16T02:11:51.180Z,12.03
2024-03-16T02:14:21.646Z,12.06
2024-03-16T02:16:55.985Z,12.02
2024-03-16T02:19:26.724Z,11.90
2024-03-16T02:21:56.928Z,11.78
2024-03-16T02:24:27.252Z,11.64
2024-03-16T02:26:57.579Z,11.58
2024-03-16T02:29:29.407Z,11.58
2024-03-16T02:31:59.613Z,11.66
2024-03-16T02:34:29.864Z,11.74
2024-03-16T02:37:00.124Z,11.77
2024-03-16T02:39:32.805Z,11.76
2024-03-16T02:42:03.693Z,11.74
2024-03-16T02:44:34.158Z,11.77
2024-03-16T02:47:05.605Z,11.69
2024-03-16T02:49:35.821Z,11.63
2024-03-16T02:52:06.889Z,11.58
2024-03-16T02:54:37.078Z,11.55
2024-03-16T02:57:07.555Z,11.58
2024-03-16T02:59:37.780Z,11.62
2024-03-16T03:02:08.115Z,11.69
2024-03-16T03:04:38.267Z,11.76
2024-03-16T03:07:08.773Z,11.82
2024-03-16T03:09:40.809Z,11.86
2024-03-16T03:12:11.725Z,11.85
2024-03-16T03:14:42.214Z,11.85
2024-03-16T03:17:12.833Z,11.88
2024-03-16T03:19:44.029Z,11.93
2024-03-16T03:22:14.328Z,11.93
2024-03-16T03:24:44.750Z,11.91
2024-03-16T03:27:15.508Z,11.91
2024-03-16T03:29:45.693Z,11.91
2024-03-16T03:32:16.235Z,11.89
2024-03-16T03:34:46.365Z,11.89
2024-03-16T03:37:16.976Z,11.89
2024-03-16T03:39:49.438Z,11.79
2024-03-16T03:42:20.174Z,11.68
2024-03-16T03:45:01.415Z,11.50
2024-03-16T03:47:50.830Z,11.37
2024-03-16T03:50:28.144Z,11.25
2024-03-16T03:53:00.527Z,11.17
2024-03-16T03:55:31.533Z,11.10
2024-03-16T03:58:03.634Z,11.09
2024-03-16T04:00:34.970Z,11.02
2024-03-16T04:03:07.818Z,11.00
2024-03-16T04:05:38.203Z,10.94
2024-03-16T04:08:08.883Z,10.87
2024-03-16T04:10:40.211Z,10.84
2024-03-16T04:13:12.546Z,10.79
2024-03-16T04:15:43.686Z,10.71
2024-03-16T04:18:13.918Z,10.66
2024-03-16T04:20:44.431Z,10.72
2024-03-16T04:23:14.659Z,10.70
2024-03-16T04:25:44.968Z,10.69
2024-03-16T04:28:15.114Z,10.65
2024-03-16T04:30:46.620Z,10.64
2024-03-16T04:33:17.171Z,10.59
2024-03-16T04:35:49.064Z,10.58
2024-03-16T04:38:19.193Z,10.57
2024-03-16T04:40:49.347Z,10.54
2024-03-16T04:43:19.629Z,10.55
2024-03-16T04:45:50.968Z,10.58
2024-03-16T04:48:21.289Z,10.67
2024-03-16T04:50:51.532Z,10.79
2024-03-16T04:53:21.751Z,10.86
2024-03-16T04:55:54.281Z,10.85
2024-03-16T04:58:24.594Z,10.87
2024-03-16T05:00:55.128Z,10.91
2024-03-16T05:03:25.629Z,10.93
2024-03-16T05:05:57.439Z,10.92
2024-03-16T05:08:30.781Z,10.96
2024-03-16T05:11:01.369Z,11.03
2024-03-16T05:13:34.403Z,11.04
2024-03-16T05:16:09.108Z,10.99
2024-03-16T05:18:39.586Z,10.86
2024-03-16T05:21:09.892Z,10.85
2024-03-16T05:23:40.765Z,10.87
2024-03-16T05:26:11.092Z,10.91
2024-03-16T05:28:41.375Z,10.93
2024-03-16T05:31:12.478Z,11.02
2024-03-16T05:33:42.864Z,11.00
2024-03-16T05:36:13.927Z,11.00
2024-03-16T05:38:46.755Z,11.05
2024-03-16T05:41:17.504Z,11.10
2024-03-16T05:43:47.708Z,11.13
2024-03-16T05:46:17.873Z,11.19
2024-03-16T05:48:48.103Z,11.29
2024-03-16T05:51:18.707Z,11.36
2024-03-16T05:53:48.940Z,11.41
2024-03-16T05:56:19.197Z,11.49
2024-03-16T05:58:49.414Z,11.63
2024-03-16T06:01:19.864Z,11.77
2024-03-16T06:03:50.562Z,11.87
2024-03-16T06:06:21.415Z,11.94
2024-03-16T06:08:51.519Z,12.11
2024-03-16T06:11:21.913Z,12.30
2024-03-16T06:13:52.293Z,12.47
2024-03-16T06:16:22.634Z,12.71
2024-03-16T06:18:53.063Z,13.07
2024-03-16T06:21:23.251Z,13.46
2024-03-16T06:23:53.531Z,13.81
2024-03-16T06:26:23.681Z,13.97
2024-03-16T06:29:05.993Z,14.05
2024-03-16T06:31:39.212Z,14.06
2024-03-16T06:34:09.847Z,14.11
2024-03-16T06:36:40.420Z,14.36
2024-03-16T06:39:12.836Z,14.51
2024-03-16T06:41:43.143Z,14.65
2024-03-16T06:44:13.456Z,14.75
2024-03-16T06:46:43.599Z,14.80
2024-03-16T06:49:17.409Z,14.81
2024-03-16T06:51:47.822Z,14.77
2024-03-16T06:54:18.179Z,14.71
2024-03-16T06:56:48.457Z,14.67
2024-03-16T06:59:18.576Z,14.58
2024-03-16T07:01:48.806Z,14.49
2024-03-16T07:04:19.074Z,14.44
2024-03-16T07:06:49.283Z,14.40
2024-03-16T07:09:19.924Z,14.35
2024-03-16T07:11:50.331Z,14.30
2024-03-16T07:14:20.557Z,14.18
2024-03-16T07:16:50.710Z,14.11
2024-03-16T07:19:24.289Z,14.10
2024-03-16T07:21:54.792Z,14.07
2024-03-16T07:24:25.264Z,14.07
2024-03-16T07:26:55.475Z,14.07
2024-03-16T07:29:26.116Z,14.02
2024-03-16T07:31:56.710Z,13.96
2024-03-16T07:34:26.923Z,13.90
2024-03-16T07:36:58.216Z,13.87
2024-03-16T07:39:28.600Z,13.86
2024-03-16T07:41:59.098Z,13.82
2024-03-16T07:44:30.438Z,13.74
2024-03-16T07:47:01.000Z,13.65
2024-03-16T07:49:31.767Z,13.57
2024-03-16T07:52:03.605Z,13.51
2024-03-16T07:54:34.014Z,13.43
2024-03-16T07:57:04.378Z,13.35
2024-03-16T07:59:34.644Z,13.30
2024-03-16T08:02:05.203Z,13.25
2024-03-16T08:04:36.212Z,13.21
2024-03-16T08:07:06.689Z,13.15
2024-03-16T08:09:37.083Z,13.11
2024-03-16T08:12:08.743Z,13.06
2024-03-16T08:14:39.019Z,12.99
2024-03-16T08:17:09.252Z,12.92
2024-03-16T08:19:40.060Z,12.87
2024-03-16T08:22:10.578Z,12.84
2024-03-16T08:24:41.264Z,12.81
2024-03-16T08:27:11.555Z,12.73
2024-03-16T08:29:41.699Z,12.67
2024-03-16T08:32:13.816Z,12.66
2024-03-16T08:34:44.065Z,12.67
2024-03-16T08:37:16.886Z,12.72
2024-03-16T08:39:47.573Z,12.77
2024-03-16T08:42:17.970Z,12.81
2024-03-16T08:44:48.948Z,12.86
2024-03-16T08:47:19.331Z,12.88
2024-03-16T08:49:49.544Z,12.87
2024-03-16T08:52:20.910Z,12.86
2024-03-16T08:54:55.325Z,12.85
2024-03-16T08:57:25.913Z,12.83
2024-03-16T08:59:56.241Z,12.82
2024-03-16T09:02:26.536Z,12.80
2024-03-16T09:04:57.136Z,12.76
2024-03-16T09:07:27.888Z,12.75
2024-03-16T09:09:58.950Z,12.75
2024-03-16T09:12:29.385Z,12.78
2024-03-16T09:14:59.545Z,12.83
2024-03-16T09:17:31.199Z,12.89
2024-03-16T09:20:07.711Z,12.98
2024-03-16T09:22:37.980Z,13.26
2024-03-16T09:25:10.116Z,13.59
2024-03-16T09:27:41.203Z,13.92
2024-03-16T09:30:12.911Z,14.12
2024-03-16T09:32:43.380Z,14.29
2024-03-16T09:35:14.149Z,14.43
2024-03-16T09:37:44.582Z,14.57
2024-03-16T09:40:15.571Z,14.66
2024-03-16T09:42:46.163Z,14.76
2024-03-16T09:45:20.454Z,14.83
2024-03-16T09:47:50.956Z,14.86
2024-03-16T09:50:25.422Z,14.83
2024-03-16T09:52:56.569Z,14.76
2024-03-16T09:55:28.394Z,14.71
2024-03-16T09:57:58.596Z,14.70
2024-03-16T10:00:32.270Z,14.70
2024-03-16T10:03:02.462Z,14.67
2024-03-16T10:05:32.851Z,14.60
2024-03-16T10:08:03.286Z,14.58
2024-03-16T10:10:33.577Z,14.60
2024-03-16T10:13:11.943Z,14.62
2024-03-16T10:15:45.764Z,14.63
2024-03-16T10:18:17.803Z,14.64
2024-03-16T10:20:47.928Z,14.61
2024-03-16T10:23:21.107Z,14.57
2024-03-16T10:25:51.506Z,14.53
2024-03-16T10:28:21.665Z,14.45
2024-03-16T10:30:52.418Z,14.35
2024-03-16T10:33:23.411Z,14.29
2024-03-16T10:35:57.119Z,14.20
2024-03-16T10:38:28.542Z,14.11
2024-03-16T10:41:00.953Z,14.00
2024-03-16T10:43:34.480Z,13.92
2024-03-16T10:46:06.975Z,13.89
2024-03-16T10:48:37.830Z,13.91
2024-03-16T10:51:16.229Z,13.96
2024-03-16T10:53:47.694Z,14.05
2024-03-16T10:56:19.156Z,14.15
2024-03-16T10:58:52.871Z,14.26
2024-03-16T11:01:23.067Z,14.39
2024-03-16T11:04:02.159Z,14.52
2024-03-16T11:06:42.378Z,14.66
2024-03-16T11:09:23.741Z,14.75
2024-03-16T11:11:56.398Z,14.78
2024-03-16T11:14:29.366Z,14.79
2024-03-16T11:16:59.583Z,14.75
2024-03-16T11:19:30.161Z,14.71
2024-03-16T11:22:04.830Z,14.67
2024-03-16T11:24:37.053Z,14.64
2024-03-16T11:27:15.112Z,14.72
2024-03-16T11:30:01.980Z,14.84
2024-03-16T11:32:34.275Z,14.95
2024-03-16T11:35:15.161Z,15.00
2024-03-16T11:37:48.834Z,15.11
2024-03-16T11:40:28.533Z,15.22
2024-03-16T11:42:59.133Z,15.27
2024-03-16T11:45:34.476Z,15.33
2024-03-16T11:48:06.319Z,15.40
2024-03-16T11:50:36.608Z,15.41
2024-03-16T11:53:07.844Z,15.36
2024-03-16T11:55:39.527Z,15.30
2024-03-16T11:58:10.540Z,15.19
2024-03-16T12:00:46.184Z,15.02
2024-03-16T12:03:19.014Z,14.81
2024-03-16T12:05:50.085Z,14.59
2024-03-16T12:08:20.386Z,14.36
2024-03-16T12:10:51.619Z,14.11
2024-03-16T12:13:21.969Z,13.94
2024-03-16T12:15:55.865Z,13.81
2024-03-16T12:18:26.871Z,13.71
2024-03-16T12:20:57.444Z,13.64
2024-03-16T12:23:29.621Z,13.62
2024-03-16T12:26:00.699Z,13.62
2024-03-16T12:28:31.082Z,13.61
2024-03-16T12:31:01.662Z,13.63
2024-03-16T12:33:35.022Z,13.66
2024-03-16T12:36:04.485Z,13.68
2024-03-16T12:38:34.944Z,13.72
2024-03-16T12:41:08.491Z,13.76
2024-03-16T12:43:38.772Z,13.71
2024-03-16T12:46:10.102Z,13.65
2024-03-16T12:48:40.462Z,13.64
2024-03-16T12:51:11.659Z,13.70
2024-03-16T12:53:41.842Z,13.85
2024-03-16T12:56:12.238Z,14.07
2024-03-16T12:58:42.333Z,14.26
2024-03-16T13:01:15.619Z,14.47
2024-03-16T13:03:48.944Z,14.61
2024-03-16T13:06:24.457Z,14.72
2024-03-16T13:08:55.206Z,14.83
2024-03-16T13:11:26.420Z,14.84
2024-03-16T13:13:56.822Z,14.85
2024-03-16T13:16:27.149Z,14.81
2024-03-16T13:18:57.448Z,14.79
2024-03-16T13:21:28.258Z,14.70
2024-03-16T13:23:58.507Z,14.62
2024-03-16T13:26:29.024Z,14.65
2024-03-16T13:29:00.354Z,14.78
2024-03-16T13:31:32.125Z,14.82
2024-03-16T13:34:02.694Z,14.86
2024-03-16T13:36:32.974Z,14.89
2024-03-16T13:39:07.355Z,14.88
2024-03-16T13:41:37.614Z,14.83
2024-03-16T13:44:08.496Z,14.76
2024-03-16T13:46:40.168Z,14.68
2024-03-16T13:49:12.220Z,14.53
2024-03-16T13:51:42.377Z,14.29
2024-03-16T13:54:14.673Z,14.03
2024-03-16T13:56:44.843Z,13.78
2024-03-16T13:59:15.320Z,13.50
2024-03-16T14:01:45.760Z,13.24
2024-03-16T14:04:17.899Z,12.99
2024-03-16T14:06:48.356Z,12.78
2024-03-16T14:09:21.217Z,12.54
2024-03-16T14:11:51.449Z,12.30
2024-03-16T14:14:21.761Z,12.19
2024-03-16T14:16:52.090Z,12.11
2024-03-16T14:19:22.470Z,11.96
2024-03-16T14:21:52.769Z,11.84
2024-03-16T14:24:23.368Z,11.74
2024-03-16T14:26:53.567Z,11.67
2024-03-16T14:29:25.028Z,11.61
2024-03-16T14:31:55.304Z,11.58
2024-03-16T14:34:25.527Z,11.57
2024-03-16T14:36:55.731Z,11.51
2024-03-16T14:39:28.910Z,11.51
2024-03-16T14:41:59.254Z,11.52
2024-03-16T14:44:29.531Z,11.49
2024-03-16T14:46:59.817Z,11.41
2024-03-16T14:49:29.987Z,11.31
2024-03-16T14:52:00.737Z,11.21
2024-03-16T14:54:30.949Z,11.15
2024-03-16T14:57:01.354Z,11.07
2024-03-16T14:59:31.607Z,11.03
2024-03-16T15:02:01.907Z,11.02
2024-03-16T15:04:32.579Z,11.04
2024-03-16T15:07:03.570Z,11.04
2024-03-16T15:09:33.738Z,11.02
2024-03-16T15:12:03.973Z,11.04
2024-03-16T15:14:34.330Z,11.08
2024-03-16T15:17:04.612Z,11.14
2024-03-16T15:19:34.890Z,11.21
2024-03-16T15:22:05.335Z,11.22
2024-03-16T15:24:37.319Z,11.22
2024-03-16T15:27:28.983Z,11.23
2024-03-16T15:29:59.110Z,11.27
2024-03-16T15:32:29.265Z,11.27
2024-03-16T15:34:59.599Z,11.25
2024-03-16T15:37:29.913Z,11.23
2024-03-16T15:40:00.359Z,11.25
2024-03-16T15:42:30.739Z,11.25
2024-03-16T15:45:02.395Z,11.19
2024-03-16T15:47:34.175Z,11.16
2024-03-16T15:50:04.474Z,11.12
2024-03-16T15:52:36.040Z,11.09
2024-03-16T15:55:07.736Z,11.01
2024-03-16T15:57:38.069Z,10.95
2024-03-16T16:00:13.118Z,10.94
2024-03-16T16:02:43.480Z,10.94
2024-03-16T16:05:15.925Z,10.93
2024-03-16T16:07:46.124Z,10.92
2024-03-16T16:10:16.244Z,10.90
2024-03-16T16:12:46.689Z,10.88
2024-03-16T16:15:20.811Z,10.86
2024-03-16T16:17:51.182Z,10.87
2024-03-16T16:20:21.358Z,10.90
2024-03-16T16:22:53.606Z,10.88
2024-03-16T16:25:26.115Z,10.89
2024-03-16T16:27:56.293Z,10.92
2024-03-16T16:30:26.410Z,10.93
2024-03-16T16:32:57.376Z,10.93
2024-03-16T16:35:27.504Z,10.92
2024-03-16T16:37:57.709Z,10.88
2024-03-16T16:40:29.041Z,10.86
2024-03-16T16:43:00.174Z,10.85
2024-03-16T16:45:30.391Z,10.84
2024-03-16T16:48:01.445Z,10.75
2024-03-16T16:50:31.692Z,10.70
2024-03-16T16:53:02.703Z,10.65
2024-03-16T16:55:35.291Z,10.61
2024-03-16T16:58:05.651Z,10.54
2024-03-16T17:00:37.380Z,10.49
2024-03-16T17:03:08.368Z,10.45
2024-03-16T17:05:38.853Z,10.41
2024-03-16T17:08:09.788Z,10.37
2024-03-16T17:10:39.941Z,10.30
2024-03-16T17:13:10.498Z,10.23
2024-03-16T17:15:42.082Z,10.20
2024-03-16T17:18:13.742Z,10.13
2024-03-16T17:20:43.816Z,10.11
2024-03-16T17:23:14.037Z,10.08
2024-03-16T17:25:44.212Z,10.02
2024-03-16T17:28:14.407Z,9.96
2024-03-16T17:30:44.650Z,9.97
2024-03-16T17:33:16.655Z,9.97
2024-03-16T17:35:47.201Z,9.94
2024-03-16T17:38:18.293Z,9.91
2024-03-16T17:40:48.527Z,9.92
2024-03-16T17:43:18.726Z,9.92
2024-03-16T17:45:48.941Z,9.93
2024-03-16T17:48:20.842Z,9.92
2024-03-16T17:50:51.057Z,9.96
2024-03-16T17:53:22.621Z,9.98
2024-03-16T17:55:52.821Z,10.00
2024-03-16T17:58:22.940Z,10.01
2024-03-16T18:00:53.111Z,10.01
2024-03-16T18:03:23.893Z,9.96
2024-03-16T18:05:54.155Z,9.92
2024-03-16T18:08:24.389Z,9.91
2024-03-16T18:10:54.579Z,9.90
2024-03-16T18:13:24.814Z,9.87
2024-03-16T18:15:56.207Z,9.83
2024-03-16T18:18:26.677Z,9.81
2024-03-16T18:20:57.146Z,9.74
2024-03-16T18:23:27.611Z,9.64
2024-03-16T18:25:58.248Z,9.55
2024-03-16T18:28:30.418Z,9.47
2024-03-16T18:31:01.542Z,9.36
2024-03-16T18:33:33.832Z,9.27
2024-03-16T18:36:08.068Z,9.24
2024-03-16T18:38:38.556Z,9.25
2024-03-16T18:41:09.381Z,9.36
2024-03-16T18:43:40.200Z,9.39
2024-03-16T18:46:14.564Z,9.40
2024-03-16T18:48:47.085Z,9.38
2024-03-16T18:51:17.781Z,9.33
2024-03-16T18:53:48.174Z,9.34
2024-03-16T18:56:19.511Z,9.33
2024-03-16T18:58:50.181Z,9.29
2024-03-16T19:01:20.969Z,9.27
2024-03-16T19:03:51.319Z,9.28
2024-03-16T19:06:21.578Z,9.34
2024-03-16T19:08:51.849Z,9.29
2024-03-16T19:11:25.007Z,9.25
2024-03-16T19:13:55.996Z,9.27
2024-03-16T19:16:26.239Z,9.27
2024-03-16T19:19:00.940Z,9.21
2024-03-16T19:21:31.689Z,9.15
2024-03-16T19:24:02.253Z,9.11
2024-03-16T19:26:32.582Z,9.09
2024-03-16T19:29:04.973Z,9.11
2024-03-16T19:31:35.757Z,9.09
2024-03-16T19:34:05.995Z,9.04
2024-03-16T19:36:36.248Z,8.98
2024-03-16T19:39:10.498Z,8.96
2024-03-16T19:41:42.121Z,9.06
2024-03-16T19:44:12.625Z,9.10
2024-03-16T19:46:43.004Z,9.09
2024-03-16T19:49:15.611Z,9.11
2024-03-16T19:51:46.810Z,9.14
2024-03-16T19:54:17.047Z,9.13
2024-03-16T19:56:47.697Z,9.12
2024-03-16T19:59:18.224Z,9.08
2024-03-16T20:01:51.473Z,9.08
2024-03-16T20:04:22.085Z,9.06
2024-03-16T20:06:56.062Z,9.00
2024-03-16T20:09:27.066Z,8.92
2024-03-16T20:11:59.558Z,8.88
2024-03-16T20:14:30.370Z,8.88
2024-03-16T20:17:01.232Z,8.86
2024-03-16T20:19:31.540Z,8.81
2024-03-16T20:22:02.255Z,8.74
2024-03-16T20:24:34.624Z,8.69
2024-03-16T20:27:06.191Z,8.72
2024-03-16T20:29:36.580Z,8.75
2024-03-16T20:32:08.118Z,8.70
2024-03-16T20:34:39.742Z,8.64
2024-03-16T20:37:10.047Z,8.59
2024-03-16T20:39:44.200Z,8.54
2024-03-16T20:42:14.925Z,8.57
2024-03-16T20:44:45.210Z,8.71
2024-03-16T20:47:15.540Z,8.77
2024-03-16T20:49:45.975Z,8.74
2024-03-16T20:52:21.169Z,8.75
2024-03-16T20:54:51.478Z,8.75
2024-03-16T20:57:22.178Z,8.81
2024-03-16T20:59:52.404Z,8.81
2024-03-16T21:02:22.774Z,8.80
2024-03-16T21:04:53.978Z,8.79
2024-03-16T21:07:24.702Z,8.80
2024-03-16T21:09:54.944Z,8.81
2024-03-16T21:12:25.354Z,8.74
2024-03-16T21:14:55.568Z,8.79
2024-03-16T21:17:25.738Z,8.84
2024-03-16T21:19:56.311Z,8.79
2024-03-16T21:22:29.213Z,8.73
2024-03-16T21:24:59.943Z,8.65
2024-03-16T21:27:30.078Z,8.58
2024-03-16T21:30:00.342Z,8.54
2024-03-16T21:32:30.767Z,8.47
2024-03-16T21:35:12.309Z,8.42
2024-03-16T21:37:43.902Z,8.37
2024-03-16T21:40:16.140Z,8.33
2024-03-16T21:42:47.069Z,8.30
2024-03-16T21:45:21.476Z,8.29
2024-03-16T21:47:51.913Z,8.33
2024-03-16T21:50:22.689Z,8.38
2024-03-16T21:52:53.294Z,8.45
2024-03-16T21:55:23.695Z,8.53
2024-03-16T21:57:54.103Z,8.58
2024-03-16T22:00:24.654Z,8.62
2024-03-16T22:02:55.497Z,8.65
2024-03-16T22:05:29.973Z,8.62
2024-03-16T22:08:04.376Z,8.60
2024-03-16T22:10:35.137Z,8.68
2024-03-16T22:13:06.354Z,8.67
2024-03-16T22:15:36.564Z,8.52
2024-03-16T22:18:07.825Z,8.50
2024-03-16T22:20:38.719Z,8.49
2024-03-16T22:23:09.482Z,8.46
2024-03-16T22:25:40.289Z,8.50
2024-03-16T22:28:10.525Z,8.51
2024-03-16T22:30:40.734Z,8.59
2024-03-16T22:33:12.885Z,8.66
2024-03-16T22:35:43.348Z,8.69
2024-03-16T22:38:14.228Z,8.61
2024-03-16T22:40:44.612Z,8.61
2024-03-16T22:43:17.304Z,8.64
2024-03-16T22:45:47.942Z,8.66
2024-03-16T22:48:18.234Z,8.64
2024-03-16T22:50:48.443Z,8.69
2024-03-16T22:53:19.499Z,8.85
2024-03-16T22:55:49.794Z,9.04
2024-03-16T22:58:20.084Z,9.18
2024-03-16T23:00:53.447Z,9.23
2024-03-16T23:03:23.716Z,9.10
2024-03-16T23:05:53.882Z,9.01
2024-03-16T23:08:24.277Z,9.02
2024-03-16T23:10:56.852Z,9.00
2024-03-16T23:13:27.211Z,9.02
2024-03-16T23:15:57.886Z,8.93
2024-03-16T23:18:28.503Z,8.79
2024-03-16T23:20:59.277Z,8.77
2024-03-16T23:23:30.633Z,8.74
2024-03-16T23:26:00.856Z,8.78
2024-03-16T23:28:32.074Z,8.85
2024-03-16T23:31:04.271Z,8.79
2024-03-16T23:33:34.431Z,8.66
2024-03-16T23:36:06.412Z,8.64
2024-03-16T23:38:36.642Z,8.69
2024-03-16T23:41:07.351Z,8.70
2024-03-16T23:43:37.571Z,8.64
2024-03-16T23:46:10.686Z,8.61
2024-03-16T23:48:40.930Z,8.55
2024-03-16T23:51:11.118Z,8.55
2024-03-16T23:53:47.540Z,8.55
2024-03-16T23:56:18.184Z,8.54
2024-03-16T23:58:48.653Z,8.62
